createdAt,value
2022-11-24T00:02:17.266Z,7.78
2022-11-24T00:07:16.754Z,7.72
2022-11-24T00:12:16.743Z,7.70
2022-11-24T00:17:16.732Z,7.65
2022-11-24T00:22:16.708Z,7.59
2022-11-24T00:27:16.789Z,7.53
2022-11-24T00:32:16.764Z,7.47
2022-11-24T00:37:16.766Z,7.41
2022-11-24T00:42:16.795Z,7.38
2022-11-24T00:47:16.891Z,7.36
2022-11-24T00:52:16.777Z,7.39
2022-11-24T00:57:16.844Z,7.37
2022-11-24T01:02:17.398Z,7.31
2022-11-24T01:07:16.951Z,7.30
2022-11-24T01:12:16.864Z,7.29
2022-11-24T01:17:17.507Z,7.32
2022-11-24T01:22:16.871Z,7.37
2022-11-24T01:27:16.926Z,7.44
2022-11-24T01:32:16.927Z,7.54
2022-11-24T01:37:16.900Z,7.59
2022-11-24T01:42:16.951Z,7.65
2022-11-24T01:47:26.121Z,7.72
2022-11-24T01:52:21.957Z,7.76
2022-11-24T01:57:24.912Z,7.77
2022-11-24T02:02:18.817Z,7.75
2022-11-24T02:07:17.628Z,7.80
2022-11-24T02:12:17.012Z,7.79
2022-11-24T02:17:17.041Z,7.77
2022-11-24T02:22:35.788Z,7.72
2022-11-24T02:27:18.259Z,7.68
2022-11-24T02:32:17.578Z,7.61
2022-11-24T02:37:17.063Z,7.63
2022-11-24T02:42:17.194Z,7.61
2022-11-24T02:47:17.089Z,7.65
2022-11-24T02:52:18.425Z,7.67
2022-11-24T02:57:17.130Z,7.68
2022-11-24T03:02:17.914Z,7.76
2022-11-24T03:07:17.152Z,7.85
2022-11-24T03:12:17.204Z,7.86
2022-11-24T03:17:17.174Z,7.88
2022-11-24T03:22:17.155Z,7.87
2022-11-24T03:27:17.172Z,7.84
2022-11-24T03:32:17.183Z,7.79
2022-11-24T03:37:17.212Z,7.79
2022-11-24T03:42:17.176Z,7.78
2022-11-24T03:47:17.207Z,7.74
2022-11-24T03:52:17.243Z,7.69
2022-11-24T03:57:17.227Z,7.70
2022-11-24T04:02:18.972Z,7.71
2022-11-24T04:07:17.633Z,7.72
2022-11-24T04:12:17.297Z,7.72
2022-11-24T04:17:17.245Z,7.76
2022-11-24T04:22:17.263Z,7.85
2022-11-24T04:27:17.328Z,7.88
2022-11-24T04:32:17.464Z,7.89
2022-11-24T04:37:17.355Z,7.92
2022-11-24T04:42:17.305Z,7.91
2022-11-24T04:47:20.357Z,7.93
2022-11-24T04:52:18.303Z,7.89
2022-11-24T04:57:21.984Z,7.81
2022-11-24T05:02:18.648Z,7.73
2022-11-24T05:07:19.348Z,7.65
2022-11-24T05:12:17.336Z,7.60
2022-11-24T05:17:17.378Z,7.56
2022-11-24T05:22:17.352Z,7.50
2022-11-24T05:27:17.370Z,7.39
2022-11-24T05:32:17.411Z,7.33
2022-11-24T05:37:17.449Z,7.31
2022-11-24T05:42:17.418Z,7.32
2022-11-24T05:47:18.225Z,7.35
2022-11-24T05:52:17.453Z,7.28
2022-11-24T05:57:17.465Z,7.26
2022-11-24T06:02:18.067Z,7.27
2022-11-24T06:07:17.866Z,7.25
2022-11-24T06:12:17.523Z,7.21
2022-11-24T06:17:17.494Z,7.16
2022-11-24T06:22:17.619Z,7.11
2022-11-24T06:27:17.617Z,7.02
2022-11-24T06:32:17.952Z,7.03
2022-11-24T06:37:17.684Z,7.04
2022-11-24T06:42:17.598Z,7.10
2022-11-24T06:47:17.561Z,7.12
2022-11-24T06:52:17.625Z,7.13
2022-11-24T06:57:17.567Z,7.14
2022-11-24T07:02:18.061Z,7.16
2022-11-24T07:07:17.690Z,7.18
2022-11-24T07:12:17.644Z,7.22
2022-11-24T07:17:17.679Z,7.22
2022-11-24T07:22:17.603Z,7.23
2022-11-24T07:27:17.622Z,7.20
2022-11-24T07:32:17.802Z,7.20
2022-11-24T07:37:17.652Z,7.21
2022-11-24T07:42:17.684Z,7.17
2022-11-24T07:47:17.741Z,7.16
2022-11-24T07:52:17.699Z,7.14
2022-11-24T07:57:17.730Z,7.14
2022-11-24T08:02:18.229Z,7.17
2022-11-24T08:07:17.768Z,7.20
2022-11-24T08:12:18.504Z,7.27
2022-11-24T08:17:17.807Z,7.28
2022-11-24T08:22:17.775Z,7.33
2022-11-24T08:27:18.299Z,7.31
2022-11-24T08:32:21.902Z,7.37
2022-11-24T08:37:17.815Z,7.44
2022-11-24T08:42:17.799Z,7.61
2022-11-24T08:47:17.848Z,7.71
2022-11-24T08:52:17.861Z,7.78
2022-11-24T08:57:21.745Z,7.65
2022-11-24T09:02:18.555Z,7.68
2022-11-24T09:07:17.956Z,7.90
2022-11-24T09:12:17.875Z,7.97
2022-11-24T09:17:17.896Z,8.30
2022-11-24T09:22:17.928Z,8.52
2022-11-24T09:27:17.900Z,8.83
2022-11-24T09:32:17.954Z,9.19
2022-11-24T09:37:17.927Z,9.95
2022-11-24T09:42:30.832Z,10.74
2022-11-24T09:47:37.909Z,11.03
2022-11-24T09:52:23.797Z,11.45
2022-11-24T09:57:20.657Z,11.81
2022-11-24T10:02:18.581Z,12.07
2022-11-24T10:07:21.641Z,12.41
2022-11-24T10:12:28.956Z,12.20
2022-11-24T10:17:28.008Z,12.58
2022-11-24T10:22:37.947Z,12.74
2022-11-24T10:27:24.314Z,12.49
2022-11-24T10:32:23.055Z,12.51
2022-11-24T10:37:24.858Z,12.25
2022-11-24T10:42:28.621Z,12.64
2022-11-24T10:47:20.254Z,12.31
2022-11-24T10:52:18.863Z,12.21
2022-11-24T10:57:30.476Z,12.10
2022-11-24T11:02:30.316Z,12.27
2022-11-24T11:07:20.949Z,12.57
2022-11-24T11:17:36.358Z,12.45
2022-11-24T11:22:25.966Z,12.18
2022-11-24T11:27:20.685Z,12.23
2022-11-24T11:37:20.580Z,12.65
2022-11-24T11:43:00.669Z,12.40
2022-11-24T11:47:27.028Z,12.29
2022-11-24T11:52:38.144Z,12.20
2022-11-24T11:57:28.359Z,12.23
2022-11-24T12:02:38.286Z,11.97
2022-11-24T12:07:38.214Z,11.94
2022-11-24T12:12:29.289Z,11.77
2022-11-24T12:17:31.156Z,11.96
2022-11-24T12:22:38.220Z,11.94
2022-11-24T12:27:29.265Z,11.92
2022-11-24T12:32:38.243Z,11.99
2022-11-24T12:37:29.319Z,12.01
2022-11-24T12:42:35.380Z,12.02
2022-11-24T12:47:27.682Z,12.03
2022-11-24T12:52:24.237Z,11.94
2022-11-24T12:57:29.350Z,11.88
2022-11-24T13:02:26.579Z,11.90
2022-11-24T13:07:34.069Z,11.94
2022-11-24T13:12:18.482Z,11.94
2022-11-24T13:17:35.178Z,11.91
2022-11-24T13:22:27.002Z,11.93
2022-11-24T13:27:26.635Z,11.94
2022-11-24T13:32:18.504Z,11.89
2022-11-24T13:37:34.419Z,11.82
2022-11-24T13:42:43.408Z,11.73
2022-11-24T13:47:30.175Z,11.71
2022-11-24T13:52:38.446Z,11.61
2022-11-24T13:57:32.922Z,11.52
2022-11-24T14:02:23.192Z,11.49
2022-11-24T14:07:18.605Z,11.39
2022-11-24T14:12:19.975Z,11.41
2022-11-24T14:17:23.405Z,11.36
2022-11-24T14:22:23.031Z,11.12
2022-11-24T14:27:24.825Z,11.02
2022-11-24T14:32:18.622Z,10.92
2022-11-24T14:37:19.106Z,10.77
2022-11-24T14:42:20.433Z,10.55
2022-11-24T14:47:31.190Z,10.37
2022-11-24T14:52:21.989Z,10.24
2022-11-24T15:02:32.003Z,9.96
2022-11-24T15:07:19.299Z,9.82
2022-11-24T15:12:31.877Z,9.67
2022-11-24T15:17:17.006Z,9.55
2022-11-24T15:22:25.753Z,9.43
2022-11-24T15:27:11.998Z,9.31
2022-11-24T15:32:13.731Z,9.20
2022-11-24T15:37:12.029Z,9.14
2022-11-24T15:42:12.172Z,9.08
2022-11-24T15:47:12.159Z,9.01
2022-11-24T15:52:12.083Z,8.92
2022-11-24T15:57:12.234Z,8.83
2022-11-24T16:02:12.741Z,8.77
2022-11-24T16:07:12.581Z,8.66
2022-11-24T16:12:12.125Z,8.57
2022-11-24T16:17:12.126Z,8.53
2022-11-24T16:22:12.262Z,8.47
2022-11-24T16:27:12.153Z,8.39
2022-11-24T16:32:12.201Z,8.28
2022-11-24T16:37:12.283Z,8.20
2022-11-24T16:42:12.198Z,8.15
2022-11-24T16:47:12.195Z,8.12
2022-11-24T16:52:13.221Z,8.11
2022-11-24T16:57:15.136Z,8.09
2022-11-24T17:02:12.913Z,8.08
2022-11-24T17:07:12.288Z,8.06
2022-11-24T17:12:12.238Z,8.06
2022-11-24T17:17:12.289Z,8.04
2022-11-24T17:22:12.273Z,8.07
2022-11-24T17:27:12.285Z,8.10
2022-11-24T17:32:12.335Z,8.08
2022-11-24T17:37:12.323Z,8.11
2022-11-24T17:42:12.301Z,8.17
2022-11-24T17:47:12.386Z,8.15
2022-11-24T17:52:12.348Z,8.17
2022-11-24T17:57:12.355Z,8.19
2022-11-24T18:02:13.018Z,8.20
2022-11-24T18:07:12.472Z,8.21
2022-11-24T18:12:12.477Z,8.19
2022-11-24T18:17:12.391Z,8.19
2022-11-24T18:22:12.394Z,8.17
2022-11-24T18:27:12.440Z,8.10
2022-11-24T18:32:12.584Z,8.05
2022-11-24T18:37:12.456Z,7.94
2022-11-24T18:42:12.482Z,7.86
2022-11-24T18:47:13.661Z,7.81
2022-11-24T18:52:12.506Z,7.75
2022-11-24T18:57:12.494Z,7.70
2022-11-24T19:02:13.098Z,7.71
2022-11-24T19:07:12.546Z,7.70
2022-11-24T19:12:12.615Z,7.69
2022-11-24T19:17:12.545Z,7.64
2022-11-24T19:22:12.543Z,7.59
2022-11-24T19:27:12.742Z,7.60
2022-11-24T19:32:12.771Z,7.54
2022-11-24T19:37:12.594Z,7.50
2022-11-24T19:42:12.610Z,7.46
2022-11-24T19:47:12.630Z,7.48
2022-11-24T19:52:12.663Z,7.44
2022-11-24T19:57:12.679Z,7.38
2022-11-24T20:02:13.208Z,7.36
2022-11-24T20:07:12.748Z,7.36
2022-11-24T20:12:12.681Z,7.38
2022-11-24T20:17:12.648Z,7.39
2022-11-24T20:22:12.695Z,7.38
2022-11-24T20:27:12.713Z,7.36
2022-11-24T20:32:12.840Z,7.36
2022-11-24T20:37:12.729Z,7.40
2022-11-24T20:42:12.869Z,7.52
2022-11-24T20:47:12.765Z,7.56
2022-11-24T20:52:12.740Z,7.62
2022-11-24T20:57:12.900Z,7.65
2022-11-24T21:02:14.055Z,7.65
2022-11-24T21:07:12.811Z,7.60
2022-11-24T21:12:12.828Z,7.55
2022-11-24T21:17:12.846Z,7.49
2022-11-24T21:22:12.813Z,7.49
2022-11-24T21:27:12.838Z,7.49
2022-11-24T21:32:12.920Z,7.52
2022-11-24T21:37:12.850Z,7.52
2022-11-24T21:42:12.838Z,7.52
2022-11-24T21:47:12.891Z,7.52
2022-11-24T21:52:12.906Z,7.48
2022-11-24T21:57:12.898Z,7.46
2022-11-24T22:02:13.881Z,7.42
2022-11-24T22:07:13.057Z,7.37
2022-11-24T22:12:12.920Z,7.36
2022-11-24T22:17:12.960Z,7.36
2022-11-24T22:22:12.940Z,7.37
2022-11-24T22:27:12.966Z,7.43
2022-11-24T22:32:13.014Z,7.49
2022-11-24T22:37:12.982Z,7.59
2022-11-24T22:42:13.013Z,7.66
2022-11-24T22:47:13.114Z,7.74
2022-11-24T22:52:13.774Z,7.80
2022-11-24T22:57:13.046Z,7.84
2022-11-24T23:02:13.665Z,7.91
2022-11-24T23:07:13.120Z,7.95
2022-11-24T23:12:13.088Z,7.98
2022-11-24T23:17:13.112Z,7.98
2022-11-24T23:22:13.085Z,7.99
2022-11-24T23:27:13.106Z,8.02
2022-11-24T23:32:13.137Z,8.04
2022-11-24T23:37:13.132Z,8.01
2022-11-24T23:42:13.118Z,7.97
2022-11-24T23:47:13.166Z,7.95
2022-11-24T23:52:13.149Z,7.94
2022-11-24T23:57:13.172Z,7.91
